sensor_id;sensor_type;location;lat;lon;timestamp;P1;durP1;ratioP1;P2;durP2;ratioP2
75379;SDS011;65641;44.714;37.756;2023-09-08T00:00:47;4.10;;;3.70;;
75379;SDS011;65641;44.714;37.756;2023-09-08T00:01:51;5.30;;;4.03;;
75379;SDS011;65641;44.714;37.756;2023-09-08T00:02:54;4.22;;;3.83;;
75379;SDS011;65641;44.714;37.756;2023-09-08T00:03:58;4.47;;;3.53;;
75379;SDS011;65641;44.714;37.756;2023-09-08T00:05:02;6.38;;;3.45;;
75379;SDS011;65641;44.714;37.756;2023-09-08T00:06:06;6.32;;;4.10;;
75379;SDS011;65641;44.714;37.756;2023-09-08T00:07:09;6.28;;;3.60;;
75379;SDS011;65641;44.714;37.756;2023-09-08T00:08:13;4.28;;;3.83;;
75379;SDS011;65641;44.714;37.756;2023-09-08T00:09:16;4.88;;;3.95;;
75379;SDS011;65641;44.714;37.756;2023-09-08T00:10:20;6.40;;;3.83;;
75379;SDS011;65641;44.714;37.756;2023-09-08T00:11:23;4.65;;;3.72;;
75379;SDS011;65641;44.714;37.756;2023-09-08T00:12:27;6.03;;;4.13;;
75379;SDS011;65641;44.714;37.756;2023-09-08T00:13:30;5.25;;;3.92;;
75379;SDS011;65641;44.714;37.756;2023-09-08T00:14:34;5.70;;;3.90;;
75379;SDS011;65641;44.714;37.756;2023-09-08T00:15:38;4.65;;;3.42;;
75379;SDS011;65641;44.714;37.756;2023-09-08T00:16:41;5.05;;;3.75;;
75379;SDS011;65641;44.714;37.756;2023-09-08T00:17:48;6.10;;;3.75;;
75379;SDS011;65641;44.714;37.756;2023-09-08T00:18:51;4.18;;;3.63;;
75379;SDS011;65641;44.714;37.756;2023-09-08T00:19:56;3.50;;;2.42;;
75379;SDS011;65641;44.714;37.756;2023-09-08T00:21:00;4.55;;;3.78;;
75379;SDS011;65641;44.714;37.756;2023-09-08T00:22:04;3.70;;;3.03;;
75379;SDS011;65641;44.714;37.756;2023-09-08T00:23:10;4.18;;;3.72;;
75379;SDS011;65641;44.714;37.756;2023-09-08T00:24:13;4.50;;;3.75;;
75379;SDS011;65641;44.714;37.756;2023-09-08T00:25:17;3.92;;;3.63;;
75379;SDS011;65641;44.714;37.756;2023-09-08T00:26:20;4.35;;;3.53;;
75379;SDS011;65641;44.714;37.756;2023-09-08T00:27:24;5.05;;;3.58;;
75379;SDS011;65641;44.714;37.756;2023-09-08T00:28:27;4.18;;;3.42;;
75379;SDS011;65641;44.714;37.756;2023-09-08T00:29:31;4.05;;;3.65;;
75379;SDS011;65641;44.714;37.756;2023-09-08T00:30:34;3.70;;;3.38;;
75379;SDS011;65641;44.714;37.756;2023-09-08T00:31:37;3.50;;;3.20;;
75379;SDS011;65641;44.714;37.756;2023-09-08T00:32:40;4.90;;;2.92;;
75379;SDS011;65641;44.714;37.756;2023-09-08T00:33:44;4.57;;;3.20;;
75379;SDS011;65641;44.714;37.756;2023-09-08T00:34:47;4.75;;;3.53;;
75379;SDS011;65641;44.714;37.756;2023-09-08T00:35:50;4.53;;;3.08;;
75379;SDS011;65641;44.714;37.756;2023-09-08T00:36:55;3.63;;;2.60;;
75379;SDS011;65641;44.714;37.756;2023-09-08T00:37:59;3.83;;;3.08;;
75379;SDS011;65641;44.714;37.756;2023-09-08T00:39:02;3.03;;;2.28;;
75379;SDS011;65641;44.714;37.756;2023-09-08T00:40:06;4.25;;;3.83;;
75379;SDS011;65641;44.714;37.756;2023-09-08T00:41:11;4.50;;;3.97;;
75379;SDS011;65641;44.714;37.756;2023-09-08T00:42:14;4.20;;;3.10;;
75379;SDS011;65641;44.714;37.756;2023-09-08T00:43:18;4.15;;;3.70;;
75379;SDS011;65641;44.714;37.756;2023-09-08T00:44:21;5.22;;;3.58;;
75379;SDS011;65641;44.714;37.756;2023-09-08T00:45:26;3.75;;;3.45;;
75379;SDS011;65641;44.714;37.756;2023-09-08T00:46:32;5.30;;;3.88;;
75379;SDS011;65641;44.714;37.756;2023-09-08T00:47:35;4.05;;;3.13;;
75379;SDS011;65641;44.714;37.756;2023-09-08T00:48:39;4.93;;;3.10;;
75379;SDS011;65641;44.714;37.756;2023-09-08T00:49:42;4.80;;;3.53;;
75379;SDS011;65641;44.714;37.756;2023-09-08T00:50:46;3.47;;;2.58;;
75379;SDS011;65641;44.714;37.756;2023-09-08T00:51:49;2.95;;;2.03;;
75379;SDS011;65641;44.714;37.756;2023-09-08T00:52:54;4.53;;;3.88;;
75379;SDS011;65641;44.714;37.756;2023-09-08T00:53:57;3.58;;;3.17;;
75379;SDS011;65641;44.714;37.756;2023-09-08T00:55:01;3.92;;;2.28;;
75379;SDS011;65641;44.714;37.756;2023-09-08T00:56:05;3.35;;;3.05;;
75379;SDS011;65641;44.714;37.756;2023-09-08T00:57:09;4.28;;;3.08;;
75379;SDS011;65641;44.714;37.756;2023-09-08T00:58:12;3.42;;;3.10;;
75379;SDS011;65641;44.714;37.756;2023-09-08T00:59:15;3.50;;;2.97;;
75379;SDS011;65641;44.714;37.756;2023-09-08T01:00:19;3.95;;;3.53;;
75379;SDS011;65641;44.714;37.756;2023-09-08T01:01:22;3.97;;;3.53;;
75379;SDS011;65641;44.714;37.756;2023-09-08T01:02:26;3.85;;;3.45;;
75379;SDS011;65641;44.714;37.756;2023-09-08T01:03:30;4.55;;;3.20;;
75379;SDS011;65641;44.714;37.756;2023-09-08T01:04:33;5.72;;;2.40;;
75379;SDS011;65641;44.714;37.756;2023-09-08T01:05:37;3.17;;;2.22;;
75379;SDS011;65641;44.714;37.756;2023-09-08T01:06:42;3.92;;;2.97;;
75379;SDS011;65641;44.714;37.756;2023-09-08T01:07:48;2.78;;;1.83;;
75379;SDS011;65641;44.714;37.756;2023-09-08T01:08:52;3.45;;;3.15;;
75379;SDS011;65641;44.714;37.756;2023-09-08T01:09:56;5.93;;;3.03;;
75379;SDS011;65641;44.714;37.756;2023-09-08T01:11:00;4.43;;;3.08;;
75379;SDS011;65641;44.714;37.756;2023-09-08T01:12:05;4.05;;;3.28;;
75379;SDS011;65641;44.714;37.756;2023-09-08T01:13:09;3.55;;;2.55;;
75379;SDS011;65641;44.714;37.756;2023-09-08T01:14:12;3.83;;;2.20;;
75379;SDS011;65641;44.714;37.756;2023-09-08T01:15:16;5.30;;;3.72;;
75379;SDS011;65641;44.714;37.756;2023-09-08T01:16:19;3.75;;;3.08;;
75379;SDS011;65641;44.714;37.756;2023-09-08T01:17:23;4.30;;;2.55;;
75379;SDS011;65641;44.714;37.756;2023-09-08T01:18:26;4.47;;;2.97;;
75379;SDS011;65641;44.714;37.756;2023-09-08T01:19:29;4.10;;;2.85;;
75379;SDS011;65641;44.714;37.756;2023-09-08T01:20:54;2.67;;;1.52;;
75379;SDS011;65641;44.714;37.756;2023-09-08T01:22:11;4.25;;;3.22;;
75379;SDS011;65641;44.714;37.756;2023-09-08T01:23:28;3.67;;;2.83;;
75379;SDS011;65641;44.714;37.756;2023-09-08T01:26:21;3.72;;;2.92;;
75379;SDS011;65641;44.714;37.756;2023-09-08T01:27:26;3.75;;;3.40;;
75379;SDS011;65641;44.714;37.756;2023-09-08T01:28:31;3.97;;;2.70;;
75379;SDS011;65641;44.714;37.756;2023-09-08T01:29:36;3.50;;;1.90;;
75379;SDS011;65641;44.714;37.756;2023-09-08T01:30:41;4.45;;;2.72;;
75379;SDS011;65641;44.714;37.756;2023-09-08T01:31:44;4.13;;;2.58;;
75379;SDS011;65641;44.714;37.756;2023-09-08T01:32:48;5.25;;;3.03;;
75379;SDS011;65641;44.714;37.756;2023-09-08T01:33:53;3.72;;;3.00;;
75379;SDS011;65641;44.714;37.756;2023-09-08T01:34:59;2.85;;;2.55;;
75379;SDS011;65641;44.714;37.756;2023-09-08T01:37:10;4.55;;;1.85;;
75379;SDS011;65641;44.714;37.756;2023-09-08T01:38:14;2.70;;;1.80;;
75379;SDS011;65641;44.714;37.756;2023-09-08T01:39:17;3.95;;;2.90;;
75379;SDS011;65641;44.714;37.756;2023-09-08T01:40:20;3.00;;;2.70;;
75379;SDS011;65641;44.714;37.756;2023-09-08T01:41:24;3.33;;;2.85;;
75379;SDS011;65641;44.714;37.756;2023-09-08T01:42:27;3.80;;;2.38;;
75379;SDS011;65641;44.714;37.756;2023-09-08T01:43:31;3.10;;;2.80;;
75379;SDS011;65641;44.714;37.756;2023-09-08T01:44:34;4.65;;;2.75;;
75379;SDS011;65641;44.714;37.756;2023-09-08T01:45:39;2.65;;;1.80;;
75379;SDS011;65641;44.714;37.756;2023-09-08T01:46:42;2.88;;;2.63;;
75379;SDS011;65641;44.714;37.756;2023-09-08T01:47:45;3.58;;;2.40;;
75379;SDS011;65641;44.714;37.756;2023-09-08T01:48:49;3.83;;;3.38;;
75379;SDS011;65641;44.714;37.756;2023-09-08T01:49:52;3.20;;;1.50;;
75379;SDS011;65641;44.714;37.756;2023-09-08T01:50:55;3.28;;;1.73;;
75379;SDS011;65641;44.714;37.756;2023-09-08T01:51:58;3.40;;;2.60;;
75379;SDS011;65641;44.714;37.756;2023-09-08T01:53:03;2.40;;;2.15;;
75379;SDS011;65641;44.714;37.756;2023-09-08T01:54:06;3.20;;;2.53;;
75379;SDS011;65641;44.714;37.756;2023-09-08T01:55:10;3.08;;;2.58;;
75379;SDS011;65641;44.714;37.756;2023-09-08T01:56:14;3.35;;;2.40;;
75379;SDS011;65641;44.714;37.756;2023-09-08T01:57:18;3.10;;;2.53;;
75379;SDS011;65641;44.714;37.756;2023-09-08T01:58:21;2.67;;;2.45;;
75379;SDS011;65641;44.714;37.756;2023-09-08T01:59:25;3.45;;;2.30;;
75379;SDS011;65641;44.714;37.756;2023-09-08T02:00:28;4.22;;;2.92;;
75379;SDS011;65641;44.714;37.756;2023-09-08T02:01:32;3.15;;;2.58;;
75379;SDS011;65641;44.714;37.756;2023-09-08T02:02:35;3.33;;;2.80;;
75379;SDS011;65641;44.714;37.756;2023-09-08T02:03:39;3.63;;;2.38;;
75379;SDS011;65641;44.714;37.756;2023-09-08T02:04:42;2.80;;;1.42;;
75379;SDS011;65641;44.714;37.756;2023-09-08T02:05:45;3.65;;;2.28;;
75379;SDS011;65641;44.714;37.756;2023-09-08T02:06:49;2.88;;;2.58;;
75379;SDS011;65641;44.714;37.756;2023-09-08T02:07:54;3.25;;;2.15;;
75379;SDS011;65641;44.714;37.756;2023-09-08T02:08:59;3.65;;;2.97;;
75379;SDS011;65641;44.714;37.756;2023-09-08T02:10:02;2.30;;;1.15;;
75379;SDS011;65641;44.714;37.756;2023-09-08T02:11:07;3.53;;;2.83;;
75379;SDS011;65641;44.714;37.756;2023-09-08T02:12:11;2.00;;;0.95;;
75379;SDS011;65641;44.714;37.756;2023-09-08T02:13:14;3.63;;;1.48;;
75379;SDS011;65641;44.714;37.756;2023-09-08T02:14:18;2.83;;;2.13;;
75379;SDS011;65641;44.714;37.756;2023-09-08T02:15:21;2.55;;;2.13;;
75379;SDS011;65641;44.714;37.756;2023-09-08T02:16:24;2.97;;;2.05;;
75379;SDS011;65641;44.714;37.756;2023-09-08T02:17:28;2.65;;;1.20;;
75379;SDS011;65641;44.714;37.756;2023-09-08T02:18:31;4.07;;;2.70;;
75379;SDS011;65641;44.714;37.756;2023-09-08T02:19:35;3.97;;;2.35;;
75379;SDS011;65641;44.714;37.756;2023-09-08T02:20:39;2.38;;;2.13;;
75379;SDS011;65641;44.714;37.756;2023-09-08T02:21:43;3.28;;;2.60;;
75379;SDS011;65641;44.714;37.756;2023-09-08T02:22:46;2.67;;;2.00;;
75379;SDS011;65641;44.714;37.756;2023-09-08T02:23:52;4.07;;;3.63;;
75379;SDS011;65641;44.714;37.756;2023-09-08T02:24:57;3.15;;;2.25;;
75379;SDS011;65641;44.714;37.756;2023-09-08T02:26:00;2.50;;;0.90;;
75379;SDS011;65641;44.714;37.756;2023-09-08T02:27:04;3.28;;;1.25;;
75379;SDS011;65641;44.714;37.756;2023-09-08T02:28:07;2.47;;;2.22;;
75379;SDS011;65641;44.714;37.756;2023-09-08T02:29:11;2.75;;;2.20;;
75379;SDS011;65641;44.714;37.756;2023-09-08T02:30:14;2.38;;;2.17;;
75379;SDS011;65641;44.714;37.756;2023-09-08T02:31:18;2.60;;;2.20;;
75379;SDS011;65641;44.714;37.756;2023-09-08T02:32:21;3.22;;;2.30;;
75379;SDS011;65641;44.714;37.756;2023-09-08T02:33:25;2.78;;;1.95;;
75379;SDS011;65641;44.714;37.756;2023-09-08T02:34:28;2.35;;;1.05;;
75379;SDS011;65641;44.714;37.756;2023-09-08T02:35:35;2.30;;;1.02;;
75379;SDS011;65641;44.714;37.756;2023-09-08T02:36:40;3.53;;;1.25;;
75379;SDS011;65641;44.714;37.756;2023-09-08T02:37:44;2.17;;;1.00;;
75379;SDS011;65641;44.714;37.756;2023-09-08T02:38:47;2.55;;;2.35;;
75379;SDS011;65641;44.714;37.756;2023-09-08T02:39:50;3.15;;;2.22;;
75379;SDS011;65641;44.714;37.756;2023-09-08T02:40:54;2.75;;;2.08;;
75379;SDS011;65641;44.714;37.756;2023-09-08T02:41:57;2.42;;;2.00;;
75379;SDS011;65641;44.714;37.756;2023-09-08T02:43:02;3.72;;;2.20;;
75379;SDS011;65641;44.714;37.756;2023-09-08T02:44:06;2.60;;;1.55;;
75379;SDS011;65641;44.714;37.756;2023-09-08T02:45:09;2.47;;;2.22;;
75379;SDS011;65641;44.714;37.756;2023-09-08T02:46:13;2.38;;;1.80;;
75379;SDS011;65641;44.714;37.756;2023-09-08T02:47:17;2.80;;;2.33;;
75379;SDS011;65641;44.714;37.756;2023-09-08T02:48:21;2.20;;;1.80;;
75379;SDS011;65641;44.714;37.756;2023-09-08T02:49:25;2.05;;;1.85;;
75379;SDS011;65641;44.714;37.756;2023-09-08T02:50:28;2.92;;;1.75;;
75379;SDS011;65641;44.714;37.756;2023-09-08T02:51:32;2.90;;;1.00;;
75379;SDS011;65641;44.714;37.756;2023-09-08T02:52:36;2.40;;;2.13;;
75379;SDS011;65641;44.714;37.756;2023-09-08T02:53:39;2.90;;;1.10;;
75379;SDS011;65641;44.714;37.756;2023-09-08T02:54:42;2.85;;;2.20;;
75379;SDS011;65641;44.714;37.756;2023-09-08T02:55:51;2.20;;;1.85;;
75379;SDS011;65641;44.714;37.756;2023-09-08T02:56:54;2.45;;;2.25;;
75379;SDS011;65641;44.714;37.756;2023-09-08T02:58:03;1.95;;;1.73;;
75379;SDS011;65641;44.714;37.756;2023-09-08T02:59:10;2.45;;;2.08;;
75379;SDS011;65641;44.714;37.756;2023-09-08T03:00:13;2.55;;;2.10;;
75379;SDS011;65641;44.714;37.756;2023-09-08T03:01:20;4.38;;;1.35;;
75379;SDS011;65641;44.714;37.756;2023-09-08T03:02:26;2.55;;;1.77;;
75379;SDS011;65641;44.714;37.756;2023-09-08T03:03:30;2.10;;;1.73;;
75379;SDS011;65641;44.714;37.756;2023-09-08T03:04:39;2.42;;;1.85;;
75379;SDS011;65641;44.714;37.756;2023-09-08T03:05:42;2.70;;;2.00;;
75379;SDS011;65641;44.714;37.756;2023-09-08T03:06:51;2.20;;;1.98;;
75379;SDS011;65641;44.714;37.756;2023-09-08T03:07:54;2.08;;;1.80;;
75379;SDS011;65641;44.714;37.756;2023-09-08T03:09:01;3.20;;;1.67;;
75379;SDS011;65641;44.714;37.756;2023-09-08T03:10:05;2.72;;;1.70;;
75379;SDS011;65641;44.714;37.756;2023-09-08T03:11:09;2.10;;;0.88;;
75379;SDS011;65641;44.714;37.756;2023-09-08T03:12:12;2.08;;;1.83;;
75379;SDS011;65641;44.714;37.756;2023-09-08T03:13:15;2.70;;;1.15;;
75379;SDS011;65641;44.714;37.756;2023-09-08T03:14:19;3.05;;;2.38;;
75379;SDS011;65641;44.714;37.756;2023-09-08T03:15:22;2.00;;;1.55;;
75379;SDS011;65641;44.714;37.756;2023-09-08T03:16:26;2.30;;;1.98;;
75379;SDS011;65641;44.714;37.756;2023-09-08T03:17:29;2.60;;;2.20;;
75379;SDS011;65641;44.714;37.756;2023-09-08T03:18:35;1.70;;;0.60;;
75379;SDS011;65641;44.714;37.756;2023-09-08T03:19:39;2.45;;;2.03;;
75379;SDS011;65641;44.714;37.756;2023-09-08T03:20:43;1.70;;;0.80;;
75379;SDS011;65641;44.714;37.756;2023-09-08T03:21:51;3.65;;;2.35;;
75379;SDS011;65641;44.714;37.756;2023-09-08T03:22:54;1.88;;;1.65;;
75379;SDS011;65641;44.714;37.756;2023-09-08T03:23:58;3.40;;;2.15;;
75379;SDS011;65641;44.714;37.756;2023-09-08T03:25:01;3.55;;;1.40;;
75379;SDS011;65641;44.714;37.756;2023-09-08T03:26:04;2.00;;;1.73;;
75379;SDS011;65641;44.714;37.756;2023-09-08T03:27:09;2.67;;;2.15;;
75379;SDS011;65641;44.714;37.756;2023-09-08T03:28:14;2.10;;;1.75;;
75379;SDS011;65641;44.714;37.756;2023-09-08T03:29:18;1.88;;;1.75;;
75379;SDS011;65641;44.714;37.756;2023-09-08T03:30:21;2.10;;;1.73;;
75379;SDS011;65641;44.714;37.756;2023-09-08T03:31:24;2.17;;;1.98;;
75379;SDS011;65641;44.714;37.756;2023-09-08T03:32:29;3.10;;;1.77;;
75379;SDS011;65641;44.714;37.756;2023-09-08T03:33:33;2.70;;;2.15;;
75379;SDS011;65641;44.714;37.756;2023-09-08T03:34:37;2.47;;;1.65;;
75379;SDS011;65641;44.714;37.756;2023-09-08T03:35:45;3.83;;;1.50;;
75379;SDS011;65641;44.714;37.756;2023-09-08T03:36:48;3.38;;;1.85;;
75379;SDS011;65641;44.714;37.756;2023-09-08T03:37:52;2.65;;;1.88;;
75379;SDS011;65641;44.714;37.756;2023-09-08T03:38:56;4.40;;;2.40;;
75379;SDS011;65641;44.714;37.756;2023-09-08T03:40:01;6.47;;;2.80;;
75379;SDS011;65641;44.714;37.756;2023-09-08T03:41:06;4.88;;;2.22;;
75379;SDS011;65641;44.714;37.756;2023-09-08T03:42:13;8.52;;;4.00;;
75379;SDS011;65641;44.714;37.756;2023-09-08T03:43:18;7.65;;;2.95;;
75379;SDS011;65641;44.714;37.756;2023-09-08T03:44:22;9.02;;;3.42;;
75379;SDS011;65641;44.714;37.756;2023-09-08T03:45:25;8.43;;;4.45;;
75379;SDS011;65641;44.714;37.756;2023-09-08T03:46:28;12.30;;;4.50;;
75379;SDS011;65641;44.714;37.756;2023-09-08T03:47:32;12.38;;;4.72;;
75379;SDS011;65641;44.714;37.756;2023-09-08T03:48:35;9.05;;;4.35;;
75379;SDS011;65641;44.714;37.756;2023-09-08T03:49:38;13.43;;;4.90;;
75379;SDS011;65641;44.714;37.756;2023-09-08T03:50:43;13.85;;;5.53;;
75379;SDS011;65641;44.714;37.756;2023-09-08T03:51:49;16.10;;;5.13;;
75379;SDS011;65641;44.714;37.756;2023-09-08T03:52:54;15.07;;;5.70;;
75379;SDS011;65641;44.714;37.756;2023-09-08T03:53:58;10.98;;;5.35;;
75379;SDS011;65641;44.714;37.756;2023-09-08T03:55:05;10.82;;;5.03;;
75379;SDS011;65641;44.714;37.756;2023-09-08T03:56:08;13.73;;;4.97;;
75379;SDS011;65641;44.714;37.756;2023-09-08T03:57:11;9.43;;;3.70;;
75379;SDS011;65641;44.714;37.756;2023-09-08T03:58:15;14.80;;;5.68;;
75379;SDS011;65641;44.714;37.756;2023-09-08T03:59:18;10.75;;;5.20;;
75379;SDS011;65641;44.714;37.756;2023-09-08T04:00:22;15.18;;;5.28;;
75379;SDS011;65641;44.714;37.756;2023-09-08T04:01:25;15.23;;;5.30;;
75379;SDS011;65641;44.714;37.756;2023-09-08T04:02:29;15.27;;;5.47;;
75379;SDS011;65641;44.714;37.756;2023-09-08T04:03:32;9.80;;;4.45;;
75379;SDS011;65641;44.714;37.756;2023-09-08T04:04:39;10.60;;;4.65;;
75379;SDS011;65641;44.714;37.756;2023-09-08T04:05:43;12.43;;;5.13;;
75379;SDS011;65641;44.714;37.756;2023-09-08T04:06:47;11.30;;;4.85;;
75379;SDS011;65641;44.714;37.756;2023-09-08T04:07:50;10.60;;;3.55;;
75379;SDS011;65641;44.714;37.756;2023-09-08T04:08:54;10.98;;;4.47;;
75379;SDS011;65641;44.714;37.756;2023-09-08T04:09:57;11.32;;;5.38;;
75379;SDS011;65641;44.714;37.756;2023-09-08T04:11:00;10.18;;;4.60;;
75379;SDS011;65641;44.714;37.756;2023-09-08T04:12:03;9.30;;;4.25;;
75379;SDS011;65641;44.714;37.756;2023-09-08T04:13:08;8.15;;;4.40;;
75379;SDS011;65641;44.714;37.756;2023-09-08T04:14:11;10.20;;;4.43;;
75379;SDS011;65641;44.714;37.756;2023-09-08T04:15:14;10.23;;;4.38;;
75379;SDS011;65641;44.714;37.756;2023-09-08T04:16:18;9.77;;;3.95;;
75379;SDS011;65641;44.714;37.756;2023-09-08T04:17:21;10.05;;;3.90;;
75379;SDS011;65641;44.714;37.756;2023-09-08T04:18:24;7.40;;;3.65;;
75379;SDS011;65641;44.714;37.756;2023-09-08T04:19:28;9.77;;;4.22;;
75379;SDS011;65641;44.714;37.756;2023-09-08T04:20:33;9.02;;;3.30;;
75379;SDS011;65641;44.714;37.756;2023-09-08T04:21:36;8.57;;;3.20;;
75379;SDS011;65641;44.714;37.756;2023-09-08T04:22:40;7.03;;;3.17;;
75379;SDS011;65641;44.714;37.756;2023-09-08T04:23:44;7.05;;;3.20;;
75379;SDS011;65641;44.714;37.756;2023-09-08T04:24:47;7.05;;;3.25;;
75379;SDS011;65641;44.714;37.756;2023-09-08T04:25:50;7.90;;;3.80;;
75379;SDS011;65641;44.714;37.756;2023-09-08T04:26:54;9.38;;;3.70;;
75379;SDS011;65641;44.714;37.756;2023-09-08T04:27:57;7.40;;;3.70;;
75379;SDS011;65641;44.714;37.756;2023-09-08T04:29:00;6.10;;;3.25;;
75379;SDS011;65641;44.714;37.756;2023-09-08T04:30:04;5.07;;;1.90;;
75379;SDS011;65641;44.714;37.756;2023-09-08T04:31:09;7.18;;;3.72;;
75379;SDS011;65641;44.714;37.756;2023-09-08T04:32:12;5.40;;;3.03;;
75379;SDS011;65641;44.714;37.756;2023-09-08T04:33:15;5.75;;;1.92;;
75379;SDS011;65641;44.714;37.756;2023-09-08T04:34:19;6.57;;;2.53;;
75379;SDS011;65641;44.714;37.756;2023-09-08T04:35:22;6.13;;;3.10;;
75379;SDS011;65641;44.714;37.756;2023-09-08T04:36:25;5.05;;;2.85;;
75379;SDS011;65641;44.714;37.756;2023-09-08T04:37:29;4.55;;;2.55;;
75379;SDS011;65641;44.714;37.756;2023-09-08T04:38:33;4.45;;;2.35;;
75379;SDS011;65641;44.714;37.756;2023-09-08T04:39:36;6.35;;;2.78;;
75379;SDS011;65641;44.714;37.756;2023-09-08T04:40:40;5.38;;;3.22;;
75379;SDS011;65641;44.714;37.756;2023-09-08T04:41:44;5.53;;;2.53;;
75379;SDS011;65641;44.714;37.756;2023-09-08T04:42:48;6.70;;;2.42;;
75379;SDS011;65641;44.714;37.756;2023-09-08T04:43:51;6.60;;;2.53;;
75379;SDS011;65641;44.714;37.756;2023-09-08T04:44:55;4.60;;;1.42;;
75379;SDS011;65641;44.714;37.756;2023-09-08T04:45:58;4.22;;;2.22;;
75379;SDS011;65641;44.714;37.756;2023-09-08T04:47:02;3.75;;;2.10;;
75379;SDS011;65641;44.714;37.756;2023-09-08T04:48:05;5.03;;;2.42;;
75379;SDS011;65641;44.714;37.756;2023-09-08T04:49:09;5.38;;;2.30;;
75379;SDS011;65641;44.714;37.756;2023-09-08T04:50:12;4.28;;;2.33;;
75379;SDS011;65641;44.714;37.756;2023-09-08T04:51:15;4.22;;;1.33;;
75379;SDS011;65641;44.714;37.756;2023-09-08T04:52:19;3.63;;;2.08;;
75379;SDS011;65641;44.714;37.756;2023-09-08T04:53:22;3.65;;;1.90;;
75379;SDS011;65641;44.714;37.756;2023-09-08T04:54:26;4.25;;;2.10;;
75379;SDS011;65641;44.714;37.756;2023-09-08T04:55:30;3.42;;;2.45;;
75379;SDS011;65641;44.714;37.756;2023-09-08T04:56:34;4.85;;;1.40;;
75379;SDS011;65641;44.714;37.756;2023-09-08T04:57:38;4.53;;;1.33;;
75379;SDS011;65641;44.714;37.756;2023-09-08T04:58:41;4.18;;;2.45;;
75379;SDS011;65641;44.714;37.756;2023-09-08T04:59:44;5.65;;;1.73;;
75379;SDS011;65641;44.714;37.756;2023-09-08T05:00:48;5.10;;;2.13;;
75379;SDS011;65641;44.714;37.756;2023-09-08T05:01:51;2.55;;;1.10;;
75379;SDS011;65641;44.714;37.756;2023-09-08T05:02:55;3.90;;;1.25;;
75379;SDS011;65641;44.714;37.756;2023-09-08T05:03:59;4.55;;;2.20;;
75379;SDS011;65641;44.714;37.756;2023-09-08T05:05:04;3.42;;;1.10;;
75379;SDS011;65641;44.714;37.756;2023-09-08T05:06:07;4.32;;;1.88;;
75379;SDS011;65641;44.714;37.756;2023-09-08T05:07:10;3.15;;;2.58;;
75379;SDS011;65641;44.714;37.756;2023-09-08T05:08:16;2.88;;;1.70;;
75379;SDS011;65641;44.714;37.756;2023-09-08T05:09:19;2.92;;;1.67;;
75379;SDS011;65641;44.714;37.756;2023-09-08T05:10:23;4.78;;;2.03;;
75379;SDS011;65641;44.714;37.756;2023-09-08T05:11:26;3.08;;;1.85;;
75379;SDS011;65641;44.714;37.756;2023-09-08T05:12:30;3.13;;;1.70;;
75379;SDS011;65641;44.714;37.756;2023-09-08T05:13:34;3.70;;;2.35;;
75379;SDS011;65641;44.714;37.756;2023-09-08T05:14:38;3.17;;;1.83;;
75379;SDS011;65641;44.714;37.756;2023-09-08T05:15:42;3.50;;;2.22;;
75379;SDS011;65641;44.714;37.756;2023-09-08T05:16:46;4.70;;;1.65;;
75379;SDS011;65641;44.714;37.756;2023-09-08T05:17:56;3.55;;;1.88;;
75379;SDS011;65641;44.714;37.756;2023-09-08T05:19:00;3.40;;;2.25;;
75379;SDS011;65641;44.714;37.756;2023-09-08T05:20:04;3.60;;;1.95;;
75379;SDS011;65641;44.714;37.756;2023-09-08T05:21:09;2.58;;;2.00;;
75379;SDS011;65641;44.714;37.756;2023-09-08T05:22:12;4.30;;;1.60;;
75379;SDS011;65641;44.714;37.756;2023-09-08T05:23:17;3.13;;;1.75;;
75379;SDS011;65641;44.714;37.756;2023-09-08T05:24:20;4.18;;;2.08;;
75379;SDS011;65641;44.714;37.756;2023-09-08T05:25:24;3.25;;;1.92;;
75379;SDS011;65641;44.714;37.756;2023-09-08T05:26:28;3.25;;;1.88;;
75379;SDS011;65641;44.714;37.756;2023-09-08T05:27:31;3.40;;;1.90;;
75379;SDS011;65641;44.714;37.756;2023-09-08T05:28:35;2.58;;;1.83;;
75379;SDS011;65641;44.714;37.756;2023-09-08T05:29:41;2.20;;;1.95;;
75379;SDS011;65641;44.714;37.756;2023-09-08T05:30:45;3.30;;;1.85;;
75379;SDS011;65641;44.714;37.756;2023-09-08T05:31:49;3.00;;;1.67;;
75379;SDS011;65641;44.714;37.756;2023-09-08T05:32:53;3.85;;;2.00;;
75379;SDS011;65641;44.714;37.756;2023-09-08T05:33:57;2.50;;;2.13;;
75379;SDS011;65641;44.714;37.756;2023-09-08T05:35:01;2.22;;;1.60;;
75379;SDS011;65641;44.714;37.756;2023-09-08T05:36:05;3.63;;;2.22;;
75379;SDS011;65641;44.714;37.756;2023-09-08T05:37:09;3.50;;;1.73;;
75379;SDS011;65641;44.714;37.756;2023-09-08T05:38:13;2.85;;;1.70;;
75379;SDS011;65641;44.714;37.756;2023-09-08T05:39:17;2.97;;;1.75;;
75379;SDS011;65641;44.714;37.756;2023-09-08T05:40:22;3.55;;;1.67;;
75379;SDS011;65641;44.714;37.756;2023-09-08T05:41:27;2.95;;;1.77;;
75379;SDS011;65641;44.714;37.756;2023-09-08T05:42:31;2.25;;;1.65;;
75379;SDS011;65641;44.714;37.756;2023-09-08T05:43:35;3.60;;;1.70;;
75379;SDS011;65641;44.714;37.756;2023-09-08T05:44:39;2.25;;;1.70;;
75379;SDS011;65641;44.714;37.756;2023-09-08T05:45:43;2.60;;;1.95;;
75379;SDS011;65641;44.714;37.756;2023-09-08T05:46:47;3.75;;;1.30;;
75379;SDS011;65641;44.714;37.756;2023-09-08T05:47:51;1.60;;;0.95;;
75379;SDS011;65641;44.714;37.756;2023-09-08T05:48:55;2.28;;;1.67;;
75379;SDS011;65641;44.714;37.756;2023-09-08T05:49:59;2.80;;;1.85;;
75379;SDS011;65641;44.714;37.756;2023-09-08T05:51:03;2.05;;;1.52;;
75379;SDS011;65641;44.714;37.756;2023-09-08T05:52:09;2.88;;;2.42;;
75379;SDS011;65641;44.714;37.756;2023-09-08T05:53:14;3.22;;;1.58;;
75379;SDS011;65641;44.714;37.756;2023-09-08T05:54:18;2.40;;;2.03;;
75379;SDS011;65641;44.714;37.756;2023-09-08T05:55:22;3.47;;;2.20;;
75379;SDS011;65641;44.714;37.756;2023-09-08T05:56:33;3.80;;;1.77;;
75379;SDS011;65641;44.714;37.756;2023-09-08T05:57:37;3.40;;;0.98;;
75379;SDS011;65641;44.714;37.756;2023-09-08T05:58:41;2.95;;;2.10;;
75379;SDS011;65641;44.714;37.756;2023-09-08T05:59:45;2.35;;;2.15;;
75379;SDS011;65641;44.714;37.756;2023-09-08T06:00:48;2.22;;;1.90;;
75379;SDS011;65641;44.714;37.756;2023-09-08T06:01:52;3.17;;;1.85;;
75379;SDS011;65641;44.714;37.756;2023-09-08T06:02:56;3.33;;;1.58;;
75379;SDS011;65641;44.714;37.756;2023-09-08T06:03:59;2.10;;;1.77;;
75379;SDS011;65641;44.714;37.756;2023-09-08T06:05:05;3.47;;;1.80;;
75379;SDS011;65641;44.714;37.756;2023-09-08T06:06:09;2.28;;;2.05;;
75379;SDS011;65641;44.714;37.756;2023-09-08T06:07:12;1.70;;;0.88;;
75379;SDS011;65641;44.714;37.756;2023-09-08T06:08:16;3.78;;;1.80;;
75379;SDS011;65641;44.714;37.756;2023-09-08T06:09:20;3.60;;;1.85;;
75379;SDS011;65641;44.714;37.756;2023-09-08T06:10:24;2.15;;;1.95;;
75379;SDS011;65641;44.714;37.756;2023-09-08T06:11:27;2.83;;;1.80;;
75379;SDS011;65641;44.714;37.756;2023-09-08T06:12:31;2.47;;;2.25;;
75379;SDS011;65641;44.714;37.756;2023-09-08T06:13:35;3.22;;;1.50;;
75379;SDS011;65641;44.714;37.756;2023-09-08T06:14:38;3.05;;;2.03;;
75379;SDS011;65641;44.714;37.756;2023-09-08T06:15:46;3.50;;;2.30;;
75379;SDS011;65641;44.714;37.756;2023-09-08T06:16:50;2.28;;;2.08;;
75379;SDS011;65641;44.714;37.756;2023-09-08T06:17:54;3.03;;;2.08;;
75379;SDS011;65641;44.714;37.756;2023-09-08T06:18:58;2.15;;;1.60;;
75379;SDS011;65641;44.714;37.756;2023-09-08T06:20:02;2.25;;;1.77;;
75379;SDS011;65641;44.714;37.756;2023-09-08T06:21:06;2.17;;;1.60;;
75379;SDS011;65641;44.714;37.756;2023-09-08T06:22:10;2.78;;;1.00;;
75379;SDS011;65641;44.714;37.756;2023-09-08T06:23:13;4.15;;;1.75;;